Time;durP1;ratioP1;P1;durP2;ratioP2;P2;SDS_P1;SDS_P2;PMS_P1;PMS_P2;Temp;Humidity;BMP_temperature;BMP_pressure;BME280_temperature;BME280_humidity;BME280_pressure;Samples;Min_cycle;Max_cycle;Signal;HPM_P1;HPM_P2
2023/09/23 00:01:05;;;;;;;10.55;9.13;;;12.20;99.90;;;;;;4967159;28;20409;-75
2023/09/23 00:03:33;;;;;;;9.52;7.90;;;12.20;99.90;;;;;;4985351;28;20060;-75
2023/09/23 00:06:00;;;;;;;10.55;9.43;;;12.10;99.90;;;;;;4989138;28;20037;-75
2023/09/23 00:08:26;;;;;;;10.35;9.25;;;12.10;99.90;;;;;;4986193;28;20038;-74
2023/09/23 00:10:51;;;;;;;15.07;10.25;;;12.10;99.90;;;;;;4952842;28;20034;-74
2023/09/23 00:13:20;;;;;;;10.60;9.50;;;12.10;99.90;;;;;;5002181;28;20041;-75
2023/09/23 00:15:46;;;;;;;13.95;11.05;;;12.10;99.90;;;;;;4971352;28;20095;-75
2023/09/23 00:18:15;;;;;;;11.57;10.38;;;12.10;99.90;;;;;;4983827;28;20054;-75
2023/09/23 00:20:42;;;;;;;12.60;10.70;;;12.10;99.90;;;;;;4990059;28;20109;-75
2023/09/23 00:23:08;;;;;;;10.73;9.73;;;12.10;99.90;;;;;;4989012;28;20041;-75
2023/09/23 00:25:34;;;;;;;15.20;11.20;;;12.10;99.90;;;;;;4990561;28;20050;-75
2023/09/23 00:28:00;;;;;;;12.65;10.07;;;12.10;99.90;;;;;;4998913;28;20069;-75
2023/09/23 00:30:28;;;;;;;11.68;10.40;;;12.10;99.90;;;;;;5005072;28;20241;-74
2023/09/23 00:32:54;;;;;;;9.88;8.98;;;12.00;99.90;;;;;;5001722;28;20513;-75
2023/09/23 00:35:20;;;;;;;10.15;8.65;;;12.10;99.90;;;;;;4996809;28;20046;-75
2023/09/23 00:37:48;;;;;;;9.55;8.40;;;12.00;99.90;;;;;;5004291;28;20049;-75
2023/09/23 00:40:27;;;;;;;10.05;8.85;;;12.10;99.90;;;;;;4984370;28;20038;-75
2023/09/23 00:42:56;;;;;;;10.00;8.05;;;12.00;99.90;;;;;;4984067;28;20413;-75
2023/09/23 00:45:25;;;;;;;11.15;9.15;;;12.00;99.90;;;;;;4988584;28;20034;-75
2023/09/23 00:47:52;;;;;;;15.05;9.73;;;12.10;99.90;;;;;;4973943;28;20097;-75
2023/09/23 00:50:20;;;;;;;13.60;9.55;;;12.10;99.90;;;;;;4988550;28;20405;-75
2023/09/23 00:52:51;;;;;;;11.73;9.98;;;12.00;99.90;;;;;;4988893;28;20050;-75
2023/09/23 00:55:24;;;;;;;13.38;9.48;;;12.00;99.90;;;;;;5003004;28;20038;-75
2023/09/23 00:57:53;;;;;;;10.93;9.68;;;12.00;99.90;;;;;;5001809;28;20037;-75
2023/09/23 01:00:27;;;;;;;11.60;10.40;;;12.00;99.90;;;;;;4988302;28;20050;-76
2023/09/23 01:02:57;;;;;;;13.60;10.85;;;12.00;99.90;;;;;;4989471;28;20048;-75
2023/09/23 01:05:27;;;;;;;10.73;9.63;;;12.00;99.90;;;;;;5006292;28;20517;-75
2023/09/23 01:07:56;;;;;;;11.35;9.75;;;11.90;99.90;;;;;;4977038;28;20389;-75
2023/09/23 01:10:23;;;;;;;11.93;9.65;;;11.90;99.90;;;;;;4984903;28;20034;-75
2023/09/23 01:12:49;;;;;;;10.35;9.35;;;12.00;99.90;;;;;;4986635;28;20129;-74
2023/09/23 01:15:17;;;;;;;13.60;10.77;;;12.00;99.90;;;;;;5005426;28;20478;-75
2023/09/23 01:17:44;;;;;;;12.75;9.90;;;11.90;99.90;;;;;;4994033;28;20045;-75
2023/09/23 01:20:13;;;;;;;12.05;9.80;;;11.90;99.90;;;;;;5003700;28;20046;-75
2023/09/23 01:22:39;;;;;;;11.65;10.45;;;11.90;99.90;;;;;;4993381;28;20038;-74
2023/09/23 01:25:06;;;;;;;12.40;10.95;;;11.90;99.90;;;;;;4992302;28;20105;-75
2023/09/23 01:27:34;;;;;;;13.70;11.95;;;11.90;99.90;;;;;;4971233;28;20041;-75
2023/09/23 01:30:03;;;;;;;16.55;12.32;;;11.90;99.90;;;;;;4990485;28;20037;-75
2023/09/23 01:32:34;;;;;;;14.13;11.95;;;11.90;99.90;;;;;;5010237;28;20049;-75
2023/09/23 01:35:04;;;;;;;16.60;13.02;;;11.90;99.90;;;;;;5000656;28;20409;-74
2023/09/23 01:37:30;;;;;;;14.95;12.40;;;11.80;99.90;;;;;;4988608;28;20041;-75
2023/09/23 01:39:56;;;;;;;16.95;12.60;;;11.80;99.90;;;;;;4987163;28;20042;-75
2023/09/23 01:42:21;;;;;;;13.73;12.10;;;11.90;99.90;;;;;;5006360;28;20041;-75
2023/09/23 01:44:48;;;;;;;15.07;11.32;;;11.80;99.90;;;;;;4987126;28;20042;-75
2023/09/23 01:47:17;;;;;;;12.73;10.60;;;11.80;99.90;;;;;;5003823;28;20048;-74
2023/09/23 01:49:45;;;;;;;16.90;12.50;;;11.90;99.90;;;;;;5001042;28;20046;-74
2023/09/23 01:52:11;;;;;;;15.13;11.35;;;11.80;99.90;;;;;;4972550;28;20049;-74
2023/09/23 01:54:37;;;;;;;12.75;10.77;;;11.80;99.90;;;;;;4975280;28;20411;-74
2023/09/23 01:57:03;;;;;;;9.57;8.65;;;11.80;99.90;;;;;;5009395;28;20048;-74
2023/09/23 01:59:29;;;;;;;10.48;8.07;;;11.80;99.90;;;;;;4999834;28;20042;-74
2023/09/23 02:01:54;;;;;;;9.20;7.50;;;11.80;99.90;;;;;;5011402;28;20128;-74
2023/09/23 02:04:20;;;;;;;9.88;7.68;;;11.70;99.90;;;;;;5004079;28;20042;-74
2023/09/23 02:06:46;;;;;;;7.45;5.78;;;11.70;99.90;;;;;;4989398;28;20405;-75
2023/09/23 02:09:11;;;;;;;6.63;5.53;;;11.70;99.90;;;;;;4987707;28;20049;-75
2023/09/23 02:11:37;;;;;;;7.00;6.20;;;11.70;99.90;;;;;;5008534;28;20038;-75
2023/09/23 02:14:06;;;;;;;8.82;6.57;;;11.70;99.90;;;;;;5006622;28;20161;-75
2023/09/23 02:16:33;;;;;;;8.32;6.90;;;11.70;99.90;;;;;;5009163;28;20072;-75
2023/09/23 02:18:58;;;;;;;8.80;7.30;;;11.70;99.90;;;;;;5025179;28;20484;-75
2023/09/23 02:21:26;;;;;;;7.78;6.30;;;11.70;99.90;;;;;;5008160;28;20056;-75
2023/09/23 02:23:55;;;;;;;7.97;6.97;;;11.60;99.90;;;;;;5002680;28;20034;-75
2023/09/23 02:26:22;;;;;;;9.65;7.80;;;11.60;99.90;;;;;;5022162;28;20034;-75
2023/09/23 02:28:48;;;;;;;10.63;9.30;;;11.60;99.90;;;;;;4988219;28;20049;-75
2023/09/23 02:31:14;;;;;;;13.43;9.35;;;11.60;99.90;;;;;;5014200;28;20042;-75
2023/09/23 02:33:40;;;;;;;11.98;10.27;;;11.60;99.90;;;;;;5010416;28;20109;-75
2023/09/23 02:36:06;;;;;;;13.88;10.60;;;11.60;99.90;;;;;;5022071;28;20047;-75
2023/09/23 02:38:32;;;;;;;14.18;11.40;;;11.60;99.90;;;;;;5006800;28;20042;-75
2023/09/23 02:41:03;;;;;;;19.75;12.23;;;11.60;99.90;;;;;;5003491;28;20033;-75
2023/09/23 02:43:29;;;;;;;10.82;9.73;;;11.60;99.90;;;;;;5015579;28;20037;-75
2023/09/23 02:46:00;;;;;;;14.40;10.75;;;11.60;99.90;;;;;;5000982;28;20038;-75
2023/09/23 02:48:26;;;;;;;10.27;9.13;;;11.60;99.90;;;;;;5000577;28;20053;-75
2023/09/23 02:50:52;;;;;;;12.63;9.57;;;11.60;99.90;;;;;;4975096;28;20104;-75
2023/09/23 02:53:18;;;;;;;11.18;8.40;;;11.60;99.90;;;;;;5009813;28;20129;-75
2023/09/23 02:55:51;;;;;;;10.00;8.82;;;11.50;99.90;;;;;;4987649;28;20125;-75
2023/09/23 02:58:18;;;;;;;11.27;9.18;;;11.50;99.90;;;;;;4997181;28;20038;-75
2023/09/23 03:00:57;;;;;;;12.73;9.70;;;11.60;99.90;;;;;;5006947;28;20038;-75
2023/09/23 03:03:24;;;;;;;14.27;10.00;;;11.50;99.90;;;;;;4986801;28;20488;-75
2023/09/23 03:05:57;;;;;;;13.25;9.90;;;11.50;99.90;;;;;;4964272;28;20072;-75
2023/09/23 03:08:26;;;;;;;11.98;10.02;;;11.40;99.90;;;;;;5003809;28;20052;-75
2023/09/23 03:10:54;;;;;;;13.95;10.50;;;11.40;99.90;;;;;;4985383;28;20034;-75
2023/09/23 03:13:21;;;;;;;12.07;9.95;;;11.30;99.90;;;;;;5008224;28;20042;-75
2023/09/23 03:15:52;;;;;;;10.00;8.98;;;11.30;99.90;;;;;;5010468;28;20049;-75
2023/09/23 03:18:29;;;;;;;19.45;10.05;;;11.30;99.90;;;;;;4977784;28;20417;-75
2023/09/23 03:21:03;;;;;;;12.80;9.77;;;11.20;99.90;;;;;;4989187;28;20057;-75
2023/09/23 03:23:29;;;;;;;12.50;10.68;;;11.20;99.90;;;;;;4976902;28;20390;-75
2023/09/23 03:25:56;;;;;;;17.55;11.68;;;11.10;99.90;;;;;;4984212;28;20053;-75
2023/09/23 03:28:22;;;;;;;19.42;12.30;;;11.10;99.90;;;;;;4979769;28;20037;-75
2023/09/23 03:30:48;;;;;;;14.65;11.20;;;11.10;99.90;;;;;;4968552;28;20148;-75
2023/09/23 03:33:21;;;;;;;16.70;12.70;;;11.10;99.90;;;;;;4985986;28;20117;-75
2023/09/23 03:35:47;;;;;;;15.15;11.70;;;11.00;99.90;;;;;;4987967;28;20044;-75
2023/09/23 03:38:13;;;;;;;18.00;12.68;;;11.00;99.90;;;;;;4988634;28;20048;-75
2023/09/23 03:40:38;;;;;;;19.45;13.05;;;11.00;99.90;;;;;;4988470;28;20121;-75
2023/09/23 03:43:05;;;;;;;16.13;12.68;;;10.90;99.90;;;;;;4984006;28;20120;-75
2023/09/23 03:45:34;;;;;;;23.27;15.55;;;10.90;99.90;;;;;;4999439;28;20040;-75
2023/09/23 03:48:00;;;;;;;18.02;13.15;;;10.90;99.90;;;;;;5010240;28;20037;-75
2023/09/23 03:50:27;;;;;;;22.25;15.35;;;10.80;99.90;;;;;;4985645;28;20069;-75
2023/09/23 03:52:52;;;;;;;22.73;15.73;;;10.90;99.90;;;;;;5009207;28;20061;-75
2023/09/23 03:55:18;;;;;;;22.92;17.00;;;10.80;99.90;;;;;;5003830;28;20383;-75
2023/09/23 03:57:46;;;;;;;25.10;17.67;;;10.80;99.90;;;;;;4990635;28;20041;-75
2023/09/23 04:00:25;;;;;;;24.58;17.45;;;10.80;99.90;;;;;;4987798;28;20029;-75
2023/09/23 04:02:52;;;;;;;20.70;17.00;;;10.80;99.90;;;;;;4981573;28;20658;-75
2023/09/23 04:05:20;;;;;;;21.20;17.45;;;10.80;99.90;;;;;;4991312;28;20043;-75
2023/09/23 04:07:49;;;;;;;27.50;19.73;;;10.80;99.90;;;;;;5004457;28;20117;-75
2023/09/23 04:10:19;;;;;;;25.58;18.13;;;10.70;99.90;;;;;;5008289;28;20038;-75
2023/09/23 04:12:46;;;;;;;24.83;18.65;;;10.70;99.90;;;;;;4994051;28;20582;-75
2023/09/23 04:15:12;;;;;;;32.22;21.20;;;10.70;99.90;;;;;;4988461;28;20037;-75
2023/09/23 04:17:38;;;;;;;28.63;20.83;;;10.70;99.90;;;;;;4989535;28;20065;-75
2023/09/23 04:20:10;;;;;;;26.20;20.05;;;10.70;99.90;;;;;;5006969;28;20461;-75
2023/09/23 04:22:37;;;;;;;;;;;10.60;99.90;;;;;;4991763;28;20469;-75
2023/09/23 04:25:05;;;;;;;24.73;19.83;;;10.60;99.90;;;;;;4987858;28;19969;-75
2023/09/23 04:27:32;;;;;;;29.70;22.42;;;10.60;99.90;;;;;;4987953;28;20046;-74
2023/09/23 04:30:00;;;;;;;30.27;21.70;;;10.60;99.90;;;;;;4988789;28;20037;-75
2023/09/23 04:32:26;;;;;;;35.42;23.40;;;10.60;99.90;;;;;;4989379;28;20081;-75
2023/09/23 04:34:52;;;;;;;35.67;23.50;;;10.50;99.90;;;;;;4985895;28;20104;-75
2023/09/23 04:37:18;;;;;;;34.03;22.85;;;10.60;99.90;;;;;;5004551;28;20038;-75
2023/09/23 04:39:43;;;;;;;27.65;20.98;;;10.60;99.90;;;;;;4984856;28;20520;-75
2023/09/23 04:42:11;;;;;;;31.85;22.27;;;10.60;99.90;;;;;;4966937;28;20039;-75
2023/09/23 04:44:37;;;;;;;31.58;22.38;;;10.60;99.90;;;;;;5004593;28;20045;-75
2023/09/23 04:47:02;;;;;;;36.15;23.77;;;10.50;99.90;;;;;;4971875;28;20046;-75
2023/09/23 04:49:28;;;;;;;33.55;23.30;;;10.50;99.90;;;;;;4975135;28;20134;-75
2023/09/23 04:51:54;;;;;;;34.17;23.13;;;10.50;99.90;;;;;;4983840;28;20045;-75
2023/09/23 04:54:20;;;;;;;34.08;23.38;;;10.50;99.90;;;;;;5003922;28;20043;-75
2023/09/23 04:56:46;;;;;;;34.72;23.50;;;10.50;99.90;;;;;;4968530;28;20046;-75
2023/09/23 04:59:12;;;;;;;37.38;24.65;;;10.50;99.90;;;;;;4971228;28;20069;-74
2023/09/23 05:01:38;;;;;;;46.08;25.80;;;10.40;99.90;;;;;;4986589;28;20405;-75
2023/09/23 05:04:04;;;;;;;43.40;24.98;;;10.40;99.90;;;;;;5003499;28;20478;-75
2023/09/23 05:06:30;;;;;;;36.53;23.73;;;10.40;99.90;;;;;;5000197;28;20121;-75
2023/09/23 05:08:55;;;;;;;35.28;24.55;;;10.40;99.90;;;;;;4998622;28;20133;-75
2023/09/23 05:11:21;;;;;;;40.20;25.52;;;10.30;99.90;;;;;;5004948;28;20097;-75
2023/09/23 05:13:47;;;;;;;55.65;28.08;;;10.30;99.90;;;;;;5009602;28;20054;-75
2023/09/23 05:16:12;;;;;;;40.40;27.17;;;10.30;99.90;;;;;;4990434;28;20050;-75
2023/09/23 05:18:38;;;;;;;46.60;27.67;;;10.30;99.90;;;;;;4968589;28;20065;-75
2023/09/23 05:21:05;;;;;;;48.55;28.08;;;10.30;99.90;;;;;;4987311;28;20046;-75
2023/09/23 05:23:30;;;;;;;62.53;31.88;;;10.30;99.90;;;;;;5001830;28;20030;-75
2023/09/23 05:25:57;;;;;;;60.17;31.35;;;10.30;99.90;;;;;;4985451;28;20519;-75
2023/09/23 05:28:26;;;;;;;53.20;31.38;;;10.30;99.90;;;;;;5002264;28;20092;-75
2023/09/23 05:30:53;;;;;;;48.33;30.15;;;10.30;99.90;;;;;;4974342;28;20144;-75
2023/09/23 05:33:19;;;;;;;66.43;34.08;;;10.30;99.90;;;;;;5005350;28;20056;-75
2023/09/23 05:35:45;;;;;;;53.75;30.65;;;10.30;99.90;;;;;;5005696;28;20045;-75
2023/09/23 05:38:12;;;;;;;74.30;37.97;;;10.30;99.90;;;;;;5004817;28;20045;-75
2023/09/23 05:40:37;;;;;;;59.17;34.75;;;10.30;99.90;;;;;;4991329;28;20459;-75
2023/09/23 05:43:04;;;;;;;58.55;34.28;;;10.40;99.90;;;;;;4985449;28;20030;-75
2023/09/23 05:45:29;;;;;;;55.70;33.60;;;10.40;99.90;;;;;;5001595;28;20038;-75
2023/09/23 05:47:55;;;;;;;58.85;35.33;;;10.40;99.90;;;;;;4982889;28;20030;-75
2023/09/23 05:50:23;;;;;;;56.45;35.30;;;10.50;99.90;;;;;;4986360;28;20072;-75
2023/09/23 05:52:49;;;;;;;59.72;37.15;;;10.50;99.90;;;;;;5001332;28;20053;-75
2023/09/23 05:55:15;;;;;;;54.17;35.25;;;10.50;99.90;;;;;;4970027;28;20038;-75
2023/09/23 05:57:41;;;;;;;57.03;36.20;;;10.60;99.90;;;;;;4981960;28;20038;-75
2023/09/23 06:00:10;;;;;;;56.78;36.15;;;10.60;99.90;;;;;;4985373;28;20046;-75
2023/09/23 06:02:35;;;;;;;68.10;39.38;;;10.70;99.90;;;;;;4971863;28;20050;-75
2023/09/23 06:05:02;;;;;;;68.20;40.92;;;10.70;99.90;;;;;;4984827;28;20045;-75
2023/09/23 06:07:28;;;;;;;58.28;39.03;;;10.70;99.90;;;;;;4987192;28;20120;-75
2023/09/23 06:09:55;;;;;;;65.05;39.22;;;10.80;99.90;;;;;;4982215;28;20042;-75
2023/09/23 06:12:21;;;;;;;63.67;40.72;;;10.80;99.90;;;;;;4984424;28;20567;-75
2023/09/23 06:14:48;;;;;;;62.50;40.63;;;10.80;99.90;;;;;;4999181;28;20038;-75
2023/09/23 06:17:14;;;;;;;68.95;42.47;;;10.80;99.90;;;;;;4987190;28;20038;-75
2023/09/23 06:19:40;;;;;;;60.70;39.80;;;10.90;99.90;;;;;;4967744;28;20109;-75
2023/09/23 06:22:05;;;;;;;72.25;42.17;;;10.90;99.90;;;;;;4953526;28;20042;-75
2023/09/23 06:24:31;;;;;;;61.15;39.15;;;10.90;99.90;;;;;;4986103;28;20037;-75
2023/09/23 06:26:57;;;;;;;73.25;44.45;;;11.00;99.90;;;;;;4990657;28;20493;-75
2023/09/23 06:29:22;;;;;;;66.28;41.08;;;11.00;99.90;;;;;;5003388;28;20038;-75
2023/09/23 06:31:48;;;;;;;63.10;41.65;;;11.00;99.90;;;;;;4984021;28;20038;-75
2023/09/23 06:34:14;;;;;;;69.18;43.22;;;11.10;99.90;;;;;;4968549;28;20045;-75
2023/09/23 06:36:39;;;;;;;73.75;44.90;;;11.10;99.90;;;;;;4989043;28;20041;-75
2023/09/23 06:39:05;;;;;;;69.43;43.33;;;11.10;99.90;;;;;;4968325;28;20469;-75
2023/09/23 06:41:31;;;;;;;63.85;40.50;;;11.20;99.90;;;;;;4986986;28;20034;-75
2023/09/23 06:43:56;;;;;;;67.70;41.95;;;11.20;99.90;;;;;;4968980;28;20061;-75
2023/09/23 06:46:23;;;;;;;53.38;37.75;;;11.30;99.90;;;;;;4984362;28;20057;-75
2023/09/23 06:48:48;;;;;;;60.83;39.78;;;11.30;99.90;;;;;;4986268;28;20437;-75
2023/09/23 06:51:14;;;;;;;76.38;42.90;;;11.30;99.90;;;;;;4985821;28;20042;-75
2023/09/23 06:53:40;;;;;;;62.30;38.53;;;11.40;99.90;;;;;;4981917;28;20497;-75
2023/09/23 06:56:06;;;;;;;60.33;38.10;;;11.40;99.90;;;;;;4986697;28;20041;-75
2023/09/23 06:58:31;;;;;;;52.33;37.00;;;11.50;99.90;;;;;;4985635;28;20042;-75
2023/09/23 07:00:57;;;;;;;62.90;40.08;;;11.40;99.90;;;;;;4968502;28;20042;-75
2023/09/23 07:03:23;;;;;;;57.38;38.30;;;11.50;99.90;;;;;;4986934;28;20501;-75
2023/09/23 07:05:49;;;;;;;54.38;38.03;;;11.50;99.90;;;;;;5000403;28;20058;-75
2023/09/23 07:08:15;;;;;;;60.67;38.95;;;11.60;99.90;;;;;;4954340;28;20038;-75
2023/09/23 07:10:41;;;;;;;52.72;35.53;;;11.70;99.90;;;;;;4989562;28;20408;-75
2023/09/23 07:13:08;;;;;;;54.13;35.17;;;11.70;99.90;;;;;;5002734;28;20069;-75
2023/09/23 07:15:38;;;;;;;57.63;37.88;;;11.80;99.90;;;;;;4986410;28;20108;-75
2023/09/23 07:18:04;;;;;;;48.47;33.42;;;11.80;99.90;;;;;;4964963;28;20086;-75
2023/09/23 07:20:30;;;;;;;49.35;34.17;;;11.80;99.90;;;;;;4969367;28;20101;-75
2023/09/23 07:22:56;;;;;;;48.00;33.58;;;11.90;99.90;;;;;;4992746;28;20030;-75
2023/09/23 07:25:22;;;;;;;47.88;33.67;;;11.90;99.90;;;;;;5012103;28;20088;-75
2023/09/23 07:27:47;;;;;;;47.45;34.15;;;12.00;99.90;;;;;;5002579;28;20079;-75
2023/09/23 07:30:14;;;;;;;48.08;35.30;;;11.90;99.90;;;;;;4991283;28;20049;-75
2023/09/23 07:32:40;;;;;;;47.67;34.58;;;11.90;99.90;;;;;;5011620;28;20568;-74
2023/09/23 07:35:07;;;;;;;43.90;32.45;;;12.00;99.90;;;;;;5004775;28;20124;-75
2023/09/23 07:37:33;;;;;;;43.15;32.88;;;12.00;99.90;;;;;;5005709;28;20041;-75
2023/09/23 07:39:59;;;;;;;41.20;32.42;;;12.00;99.90;;;;;;4991479;28;20046;-75
2023/09/23 07:42:24;;;;;;;42.63;31.65;;;12.10;99.90;;;;;;4995624;28;20033;-75
2023/09/23 07:44:50;;;;;;;43.03;31.52;;;12.20;99.90;;;;;;5007847;28;20034;-75
2023/09/23 07:47:16;;;;;;;44.97;33.13;;;12.20;99.90;;;;;;5001240;28;20050;-75
2023/09/23 07:49:42;;;;;;;43.85;32.67;;;12.40;99.90;;;;;;4970624;28;20049;-75
2023/09/23 07:52:07;;;;;;;35.05;29.35;;;12.40;99.90;;;;;;4986211;28;20046;-74
2023/09/23 07:54:33;;;;;;;36.63;27.83;;;12.40;99.90;;;;;;4974150;28;20160;-74
2023/09/23 07:56:59;;;;;;;39.50;31.00;;;12.40;99.90;;;;;;4988240;28;20123;-74
2023/09/23 07:59:24;;;;;;;36.50;28.95;;;12.50;99.90;;;;;;4986988;28;20603;-74
2023/09/23 08:01:50;;;;;;;33.88;27.02;;;12.50;99.90;;;;;;5003250;28;20183;-80
2023/09/23 08:04:16;;;;;;;43.08;30.58;;;12.60;99.90;;;;;;4988663;28;20050;-75
2023/09/23 08:06:43;;;;;;;32.92;25.70;;;12.60;99.90;;;;;;5003285;28;20625;-75
2023/09/23 08:09:09;;;;;;;30.60;24.98;;;12.60;99.90;;;;;;4999273;28;20034;-75
2023/09/23 08:11:35;;;;;;;35.53;28.33;;;12.70;99.90;;;;;;4970771;28;20486;-75
2023/09/23 08:14:01;;;;;;;33.10;25.73;;;12.80;99.90;;;;;;4988875;28;20404;-75
2023/09/23 08:16:26;;;;;;;32.72;25.70;;;13.00;99.90;;;;;;4985066;28;20041;-75
2023/09/23 08:18:52;;;;;;;27.42;23.33;;;13.00;99.90;;;;;;4988415;28;20061;-75
2023/09/23 08:21:18;;;;;;;33.10;24.95;;;13.00;99.90;;;;;;5003403;28;20524;-76
2023/09/23 08:23:44;;;;;;;28.30;25.05;;;12.90;99.90;;;;;;5011271;28;21530;-75
2023/09/23 08:26:10;;;;;;;29.30;23.52;;;13.00;99.90;;;;;;4998609;28;20041;-75
2023/09/23 08:28:36;;;;;;;27.85;22.17;;;13.10;99.90;;;;;;4988838;28;20116;-75
2023/09/23 08:31:02;;;;;;;27.67;24.00;;;13.30;99.90;;;;;;4980588;28;20382;-75
2023/09/23 08:33:28;;;;;;;26.15;23.33;;;13.50;99.90;;;;;;4962117;28;20049;-75
2023/09/23 08:35:54;;;;;;;24.95;21.38;;;13.60;99.90;;;;;;4996171;28;20092;-75
2023/09/23 08:38:21;;;;;;;28.00;21.30;;;13.70;99.90;;;;;;4996355;28;20045;-75
2023/09/23 08:40:46;;;;;;;24.95;21.80;;;13.70;99.90;;;;;;4992378;28;20089;-75
2023/09/23 08:43:12;;;;;;;23.83;20.45;;;13.70;99.90;;;;;;5005945;28;20066;-75
2023/09/23 08:45:46;;;;;;;25.50;21.85;;;13.70;99.90;;;;;;5000015;28;20042;-75
2023/09/23 08:48:13;;;;;;;23.15;19.60;;;13.80;99.90;;;;;;4987747;28;20109;-75
2023/09/23 08:50:43;;;;;;;22.05;18.98;;;14.10;99.90;;;;;;4973654;28;20046;-75
2023/09/23 08:53:11;;;;;;;20.60;18.58;;;14.20;99.90;;;;;;4974746;28;20045;-75
2023/09/23 08:55:38;;;;;;;21.63;18.52;;;14.30;99.90;;;;;;5004451;28;20073;-75
2023/09/23 08:58:04;;;;;;;21.65;17.42;;;14.30;99.90;;;;;;4995820;28;20045;-75
2023/09/23 09:00:31;;;;;;;19.40;17.40;;;14.30;99.90;;;;;;4986604;28;20125;-75
2023/09/23 09:03:00;;;;;;;18.92;16.77;;;14.30;99.90;;;;;;4995590;28;20405;-75
2023/09/23 09:05:38;;;;;;;22.17;17.92;;;14.30;99.90;;;;;;5000026;28;20293;-75
2023/09/23 09:08:05;;;;;;;18.98;16.95;;;14.30;99.90;;;;;;4987703;28;20076;-74
2023/09/23 09:10:31;;;;;;;20.38;17.58;;;14.30;99.90;;;;;;4991944;28;20453;-74
2023/09/23 09:12:56;;;;;;;19.02;16.88;;;14.30;99.90;;;;;;4991346;28;20112;-74
2023/09/23 09:15:23;;;;;;;18.73;15.50;;;14.40;99.90;;;;;;4962722;28;20072;-75
2023/09/23 09:17:49;;;;;;;18.30;16.40;;;14.60;99.90;;;;;;4988917;28;20117;-75
2023/09/23 09:20:14;;;;;;;18.52;16.58;;;14.60;99.90;;;;;;5002130;28;20129;-74
2023/09/23 09:22:40;;;;;;;18.80;16.55;;;14.60;99.90;;;;;;5009939;28;20038;-74
2023/09/23 09:25:11;;;;;;;17.92;16.02;;;14.40;99.90;;;;;;4992172;28;20121;-76
2023/09/23 09:27:37;;;;;;;19.42;16.05;;;14.40;99.90;;;;;;5009956;28;20508;-75
2023/09/23 09:30:11;;;;;;;18.88;16.92;;;14.40;99.90;;;;;;4990487;28;20045;-75
2023/09/23 09:32:41;;;;;;;17.40;15.50;;;14.40;99.90;;;;;;4993478;28;20042;-75
2023/09/23 09:35:14;;;;;;;19.50;16.90;;;14.50;99.90;;;;;;4989961;28;20468;-75
2023/09/23 09:37:43;;;;;;;18.17;16.27;;;14.50;99.90;;;;;;5002817;28;20123;-75
2023/09/23 09:40:14;;;;;;;18.33;15.98;;;14.60;99.90;;;;;;4984611;28;20050;-75
2023/09/23 09:42:46;;;;;;;17.55;15.85;;;14.70;99.90;;;;;;4976969;28;21278;-75
2023/09/23 09:45:13;;;;;;;18.60;16.30;;;14.80;99.90;;;;;;5001074;28;20038;-76
2023/09/23 09:47:41;;;;;;;17.77;15.98;;;14.80;99.90;;;;;;4972120;28;20037;-76
2023/09/23 09:50:07;;;;;;;17.98;15.80;;;14.90;99.90;;;;;;4978615;28;20487;-75
2023/09/23 09:52:35;;;;;;;17.00;15.20;;;15.00;99.90;;;;;;4978889;28;20040;-75
2023/09/23 09:55:03;;;;;;;16.83;14.48;;;15.20;99.90;;;;;;5003610;28;20045;-75
2023/09/23 09:57:29;;;;;;;17.48;15.25;;;15.30;99.90;;;;;;4991184;28;20131;-75
2023/09/23 10:00:20;;;;;;;16.65;14.43;;;15.50;99.90;;;;;;4991701;28;20042;-75
2023/09/23 10:02:47;;;;;;;22.05;13.52;;;15.60;99.90;;;;;;4996514;28;20113;-75
2023/09/23 10:05:17;;;;;;;17.33;13.32;;;15.70;99.90;;;;;;4988308;28;20204;-74
2023/09/23 10:07:55;;;;;;;17.58;12.82;;;15.80;99.90;;;;;;4968544;28;20481;-75
2023/09/23 10:10:48;;;;;;;14.25;12.25;;;15.70;99.90;;;;;;5001380;28;20117;-74
2023/09/23 10:13:17;;;;;;;11.93;10.80;;;15.80;99.90;;;;;;4997625;28;20053;-74
2023/09/23 10:15:43;;;;;;;15.73;11.70;;;15.90;99.90;;;;;;4971143;28;20125;-74
2023/09/23 10:18:33;;;;;;;12.55;11.23;;;15.70;99.90;;;;;;5010404;28;20468;-74
2023/09/23 10:20:58;;;;;;;13.20;11.77;;;15.60;99.90;;;;;;5004088;28;20062;-74
2023/09/23 10:23:24;;;;;;;12.10;10.82;;;15.60;99.90;;;;;;4981048;28;20046;-74
2023/09/23 10:25:52;;;;;;;11.77;10.23;;;15.50;99.90;;;;;;4996915;28;20037;-74
2023/09/23 10:28:25;;;;;;;13.57;10.02;;;15.60;99.90;;;;;;4976828;28;20493;-74
2023/09/23 10:30:59;;;;;;;11.50;9.48;;;15.60;99.90;;;;;;4975143;28;20413;-74
2023/09/23 10:33:26;;;;;;;9.73;8.70;;;15.80;99.90;;;;;;4977783;28;20046;-73
2023/09/23 10:35:53;;;;;;;9.82;8.43;;;16.00;99.90;;;;;;4994430;28;20082;-73
2023/09/23 10:38:31;;;;;;;10.77;8.82;;;16.10;99.90;;;;;;5009364;28;20045;-73
2023/09/23 10:40:57;;;;;;;9.65;8.23;;;16.10;99.90;;;;;;4994824;28;20119;-73
2023/09/23 10:43:23;;;;;;;9.65;8.68;;;16.20;99.90;;;;;;5002450;28;20031;-73
2023/09/23 10:45:59;;;;;;;10.48;8.73;;;16.30;99.90;;;;;;4996600;28;20038;-73
2023/09/23 10:48:31;;;;;;;13.07;9.00;;;16.40;99.90;;;;;;4997829;28;20042;-74
2023/09/23 10:50:58;;;;;;;10.35;8.05;;;16.30;99.90;;;;;;4985605;28;20045;-74
2023/09/23 10:53:30;;;;;;;9.00;8.05;;;16.20;99.90;;;;;;4985867;28;20448;-74
2023/09/23 10:55:56;;;;;;;11.90;7.78;;;16.10;99.90;;;;;;4964518;28;20096;-73
2023/09/23 10:58:22;;;;;;;9.80;8.57;;;16.30;99.90;;;;;;4997383;28;20648;-72
2023/09/23 11:00:48;;;;;;;10.40;7.68;;;16.30;99.90;;;;;;4989263;28;20092;-73
2023/09/23 11:03:19;;;;;;;10.20;7.43;;;16.50;99.90;;;;;;5000186;28;20113;-72
2023/09/23 11:05:46;;;;;;;11.70;7.53;;;16.60;99.90;;;;;;4992208;28;20038;-72
2023/09/23 11:08:14;;;;;;;11.65;8.15;;;16.50;99.90;;;;;;4992751;28;20508;-72
2023/09/23 11:10:47;;;;;;;10.70;7.60;;;16.30;99.90;;;;;;4999991;28;20050;-72
2023/09/23 11:13:15;;;;;;;12.13;8.48;;;16.40;99.90;;;;;;4989109;28;20042;-72
2023/09/23 11:15:44;;;;;;;10.25;7.47;;;16.60;99.90;;;;;;5000079;28;20042;-72
2023/09/23 11:18:12;;;;;;;13.70;7.55;;;16.70;99.90;;;;;;4983121;28;20077;-72
2023/09/23 11:20:40;;;;;;;10.38;7.55;;;16.80;99.90;;;;;;5009175;28;20061;-73
2023/09/23 11:23:07;;;;;;;12.10;7.07;;;16.70;99.90;;;;;;4981605;28;20053;-72
2023/09/23 11:25:42;;;;;;;8.38;7.07;;;16.60;99.90;;;;;;4983556;28;20046;-72
2023/09/23 11:28:24;;;;;;;9.15;6.50;;;16.40;99.90;;;;;;4967555;28;20540;-72
2023/09/23 11:30:50;;;;;;;;;;;16.30;99.90;;;;;;5003695;28;20088;-72
2023/09/23 11:33:16;;;;;;;10.13;5.57;;;16.20;99.90;;;;;;4998555;28;19921;-72
2023/09/23 11:35:43;;;;;;;8.85;5.32;;;16.00;99.90;;;;;;4984863;28;20443;-72
2023/09/23 11:38:10;;;;;;;9.45;5.32;;;16.00;99.90;;;;;;4985839;28;20042;-72
2023/09/23 11:40:36;;;;;;;7.18;5.15;;;16.00;99.90;;;;;;5002221;28;20061;-72
2023/09/23 11:43:02;;;;;;;8.23;4.70;;;15.90;99.90;;;;;;4991736;28;20030;-72
2023/09/23 11:45:28;;;;;;;6.47;4.18;;;15.90;99.90;;;;;;4974545;28;20053;-73
2023/09/23 11:47:59;;;;;;;9.98;5.47;;;15.80;99.90;;;;;;4998173;28;20413;-72
2023/09/23 11:50:25;;;;;;;5.30;4.80;;;15.70;99.90;;;;;;5000341;28;20073;-72
2023/09/23 11:52:52;;;;;;;7.53;4.85;;;15.70;99.90;;;;;;4988762;28;20052;-72
2023/09/23 11:55:18;;;;;;;9.70;5.20;;;15.70;99.90;;;;;;5006223;28;20122;-72
2023/09/23 11:57:44;;;;;;;5.47;4.90;;;15.70;99.90;;;;;;4983677;28;20531;-73
2023/09/23 12:00:10;;;;;;;5.70;4.60;;;15.70;99.90;;;;;;4991638;28;20041;-72
2023/09/23 12:02:40;;;;;;;7.35;5.18;;;15.70;99.90;;;;;;4998899;28;20039;-72
2023/09/23 12:05:07;;;;;;;8.10;5.43;;;15.70;99.90;;;;;;4966655;28;20444;-72
2023/09/23 12:07:34;;;;;;;8.48;5.40;;;15.60;99.90;;;;;;5012977;28;20045;-72
2023/09/23 12:10:01;;;;;;;7.47;5.50;;;15.70;99.90;;;;;;5003614;28;20049;-72
2023/09/23 12:12:27;;;;;;;8.07;5.90;;;15.70;99.90;;;;;;4967943;28;20497;-72
2023/09/23 12:14:54;;;;;;;7.05;5.10;;;15.80;99.90;;;;;;5013490;28;20120;-72
2023/09/23 12:17:19;;;;;;;6.30;4.85;;;15.90;99.90;;;;;;4978052;28;20056;-72
2023/09/23 12:19:45;;;;;;;6.32;5.00;;;16.00;99.90;;;;;;4981612;28;20054;-72
2023/09/23 12:22:17;;;;;;;7.32;4.85;;;16.10;99.90;;;;;;4993628;28;20044;-72
2023/09/23 12:24:44;;;;;;;;;;;16.20;99.90;;;;;;5012029;28;20040;-72
2023/09/23 12:27:10;;;;;;;7.55;4.72;;;16.20;99.90;;;;;;5003263;28;19917;-72
2023/09/23 12:29:36;;;;;;;7.57;5.50;;;16.20;99.90;;;;;;4999576;28;20034;-72
2023/09/23 12:32:02;;;;;;;5.28;3.60;;;16.40;99.90;;;;;;4992078;28;20053;-72
2023/09/23 12:34:29;;;;;;;7.65;4.18;;;16.40;99.90;;;;;;4974111;28;20038;-72